sensor_id;sensor_type;location;lat;lon;timestamp;P1;durP1;ratioP1;P2;durP2;ratioP2
25824;SDS011;13658;44.534;18.694;2023-09-18T00:00:50;70.05;;;61.63;;
25824;SDS011;13658;44.534;18.694;2023-09-18T00:03:21;64.28;;;57.38;;
25824;SDS011;13658;44.534;18.694;2023-09-18T00:05:50;65.57;;;57.97;;
25824;SDS011;13658;44.534;18.694;2023-09-18T00:08:17;67.68;;;60.25;;
25824;SDS011;13658;44.534;18.694;2023-09-18T00:10:54;68.63;;;60.08;;
25824;SDS011;13658;44.534;18.694;2023-09-18T00:13:21;66.53;;;59.20;;
25824;SDS011;13658;44.534;18.694;2023-09-18T00:15:47;66.07;;;58.83;;
25824;SDS011;13658;44.534;18.694;2023-09-18T00:18:14;69.15;;;60.58;;
25824;SDS011;13658;44.534;18.694;2023-09-18T00:20:41;65.72;;;57.60;;
25824;SDS011;13658;44.534;18.694;2023-09-18T00:23:08;65.35;;;57.97;;
25824;SDS011;13658;44.534;18.694;2023-09-18T00:25:35;64.93;;;57.10;;
25824;SDS011;13658;44.534;18.694;2023-09-18T00:28:02;65.40;;;57.88;;
25824;SDS011;13658;44.534;18.694;2023-09-18T00:30:28;65.05;;;57.95;;
25824;SDS011;13658;44.534;18.694;2023-09-18T00:32:54;66.68;;;57.88;;
25824;SDS011;13658;44.534;18.694;2023-09-18T00:35:20;65.88;;;58.78;;
25824;SDS011;13658;44.534;18.694;2023-09-18T00:37:48;67.63;;;60.17;;
25824;SDS011;13658;44.534;18.694;2023-09-18T00:40:14;66.65;;;59.35;;
25824;SDS011;13658;44.534;18.694;2023-09-18T00:42:40;68.03;;;59.72;;
25824;SDS011;13658;44.534;18.694;2023-09-18T00:45:06;65.70;;;58.53;;
25824;SDS011;13658;44.534;18.694;2023-09-18T00:47:33;68.25;;;59.45;;
25824;SDS011;13658;44.534;18.694;2023-09-18T00:50:02;67.53;;;60.10;;
25824;SDS011;13658;44.534;18.694;2023-09-18T00:52:31;68.50;;;60.70;;
25824;SDS011;13658;44.534;18.694;2023-09-18T00:54:58;69.50;;;61.25;;
25824;SDS011;13658;44.534;18.694;2023-09-18T00:57:25;68.40;;;60.65;;
25824;SDS011;13658;44.534;18.694;2023-09-18T00:59:51;68.03;;;60.63;;
25824;SDS011;13658;44.534;18.694;2023-09-18T01:02:17;71.40;;;62.70;;
25824;SDS011;13658;44.534;18.694;2023-09-18T01:04:46;70.47;;;61.78;;
25824;SDS011;13658;44.534;18.694;2023-09-18T01:07:13;72.72;;;60.78;;
25824;SDS011;13658;44.534;18.694;2023-09-18T01:09:40;69.22;;;60.35;;
25824;SDS011;13658;44.534;18.694;2023-09-18T01:14:42;70.88;;;60.38;;
25824;SDS011;13658;44.534;18.694;2023-09-18T01:17:22;63.58;;;56.45;;
25824;SDS011;13658;44.534;18.694;2023-09-18T01:19:48;62.63;;;55.78;;
25824;SDS011;13658;44.534;18.694;2023-09-18T01:22:15;61.20;;;54.47;;
25824;SDS011;13658;44.534;18.694;2023-09-18T01:24:42;63.90;;;53.65;;
25824;SDS011;13658;44.534;18.694;2023-09-18T01:27:10;59.30;;;52.80;;
25824;SDS011;13658;44.534;18.694;2023-09-18T01:29:42;58.42;;;51.72;;
25824;SDS011;13658;44.534;18.694;2023-09-18T01:32:09;55.90;;;49.88;;
25824;SDS011;13658;44.534;18.694;2023-09-18T01:34:36;57.00;;;50.08;;
25824;SDS011;13658;44.534;18.694;2023-09-18T01:37:07;57.05;;;50.78;;
25824;SDS011;13658;44.534;18.694;2023-09-18T01:39:35;58.50;;;51.80;;
25824;SDS011;13658;44.534;18.694;2023-09-18T01:42:04;61.30;;;53.08;;
25824;SDS011;13658;44.534;18.694;2023-09-18T01:44:34;59.90;;;52.97;;
25824;SDS011;13658;44.534;18.694;2023-09-18T01:47:04;57.40;;;51.08;;
25824;SDS011;13658;44.534;18.694;2023-09-18T01:49:36;59.25;;;51.75;;
25824;SDS011;13658;44.534;18.694;2023-09-18T01:52:04;59.72;;;53.28;;
25824;SDS011;13658;44.534;18.694;2023-09-18T01:54:31;68.95;;;57.67;;
25824;SDS011;13658;44.534;18.694;2023-09-18T01:56:58;65.35;;;57.47;;
25824;SDS011;13658;44.534;18.694;2023-09-18T01:59:24;62.08;;;55.30;;
25824;SDS011;13658;44.534;18.694;2023-09-18T02:01:51;64.80;;;56.00;;
25824;SDS011;13658;44.534;18.694;2023-09-18T02:04:19;60.00;;;53.50;;
25824;SDS011;13658;44.534;18.694;2023-09-18T02:06:46;63.20;;;53.85;;
25824;SDS011;13658;44.534;18.694;2023-09-18T02:09:13;63.50;;;54.22;;
25824;SDS011;13658;44.534;18.694;2023-09-18T02:11:41;61.15;;;52.10;;
25824;SDS011;13658;44.534;18.694;2023-09-18T02:14:08;57.95;;;50.47;;
25824;SDS011;13658;44.534;18.694;2023-09-18T02:16:38;56.42;;;49.83;;
25824;SDS011;13658;44.534;18.694;2023-09-18T02:19:14;57.78;;;50.95;;
25824;SDS011;13658;44.534;18.694;2023-09-18T02:21:42;61.63;;;51.38;;
25824;SDS011;13658;44.534;18.694;2023-09-18T02:24:08;57.70;;;51.38;;
25824;SDS011;13658;44.534;18.694;2023-09-18T02:26:34;59.35;;;51.13;;
25824;SDS011;13658;44.534;18.694;2023-09-18T02:29:06;59.72;;;50.72;;
25824;SDS011;13658;44.534;18.694;2023-09-18T02:31:36;57.20;;;49.95;;
25824;SDS011;13658;44.534;18.694;2023-09-18T02:34:02;56.53;;;49.67;;
25824;SDS011;13658;44.534;18.694;2023-09-18T02:36:28;55.40;;;47.97;;
25824;SDS011;13658;44.534;18.694;2023-09-18T02:38:54;53.22;;;46.95;;
25824;SDS011;13658;44.534;18.694;2023-09-18T02:41:20;54.72;;;46.97;;
25824;SDS011;13658;44.534;18.694;2023-09-18T02:43:46;54.50;;;48.58;;
25824;SDS011;13658;44.534;18.694;2023-09-18T02:46:12;54.00;;;48.20;;
25824;SDS011;13658;44.534;18.694;2023-09-18T02:48:38;54.67;;;48.67;;
25824;SDS011;13658;44.534;18.694;2023-09-18T02:51:04;59.83;;;52.42;;
25824;SDS011;13658;44.534;18.694;2023-09-18T02:53:31;60.33;;;52.85;;
25824;SDS011;13658;44.534;18.694;2023-09-18T02:55:58;60.30;;;53.03;;
25824;SDS011;13658;44.534;18.694;2023-09-18T02:58:24;55.72;;;49.58;;
25824;SDS011;13658;44.534;18.694;2023-09-18T03:00:52;54.83;;;48.47;;
25824;SDS011;13658;44.534;18.694;2023-09-18T03:03:21;56.47;;;49.15;;
25824;SDS011;13658;44.534;18.694;2023-09-18T03:05:47;58.10;;;51.50;;
25824;SDS011;13658;44.534;18.694;2023-09-18T03:08:13;58.03;;;50.65;;
25824;SDS011;13658;44.534;18.694;2023-09-18T03:10:43;56.88;;;49.85;;
25824;SDS011;13658;44.534;18.694;2023-09-18T03:13:10;56.70;;;50.45;;
25824;SDS011;13658;44.534;18.694;2023-09-18T03:15:36;60.97;;;51.92;;
25824;SDS011;13658;44.534;18.694;2023-09-18T03:18:03;56.90;;;49.50;;
25824;SDS011;13658;44.534;18.694;2023-09-18T03:20:30;55.70;;;49.63;;
25824;SDS011;13658;44.534;18.694;2023-09-18T03:22:58;55.67;;;49.33;;
25824;SDS011;13658;44.534;18.694;2023-09-18T03:25:26;56.28;;;49.45;;
25824;SDS011;13658;44.534;18.694;2023-09-18T03:28:19;59.17;;;50.40;;
25824;SDS011;13658;44.534;18.694;2023-09-18T03:30:45;71.85;;;59.83;;
25824;SDS011;13658;44.534;18.694;2023-09-18T03:33:11;64.47;;;55.05;;
25824;SDS011;13658;44.534;18.694;2023-09-18T03:35:59;69.80;;;59.20;;
25824;SDS011;13658;44.534;18.694;2023-09-18T03:38:26;64.30;;;55.63;;
25824;SDS011;13658;44.534;18.694;2023-09-18T03:40:53;59.67;;;52.35;;
25824;SDS011;13658;44.534;18.694;2023-09-18T03:43:19;57.72;;;50.95;;
25824;SDS011;13658;44.534;18.694;2023-09-18T03:45:46;56.03;;;49.25;;
25824;SDS011;13658;44.534;18.694;2023-09-18T03:48:13;58.38;;;50.58;;
25824;SDS011;13658;44.534;18.694;2023-09-18T03:50:40;56.10;;;49.13;;
25824;SDS011;13658;44.534;18.694;2023-09-18T03:53:06;54.40;;;46.90;;
25824;SDS011;13658;44.534;18.694;2023-09-18T03:55:32;54.58;;;46.95;;
25824;SDS011;13658;44.534;18.694;2023-09-18T03:57:58;54.03;;;45.95;;
25824;SDS011;13658;44.534;18.694;2023-09-18T04:00:24;52.90;;;46.15;;
25824;SDS011;13658;44.534;18.694;2023-09-18T04:02:50;53.17;;;46.70;;
25824;SDS011;13658;44.534;18.694;2023-09-18T04:05:16;55.88;;;47.92;;
25824;SDS011;13658;44.534;18.694;2023-09-18T04:07:41;60.20;;;51.53;;
25824;SDS011;13658;44.534;18.694;2023-09-18T04:10:11;58.40;;;51.70;;
25824;SDS011;13658;44.534;18.694;2023-09-18T04:12:44;60.65;;;53.70;;
25824;SDS011;13658;44.534;18.694;2023-09-18T04:15:13;64.70;;;52.50;;
25824;SDS011;13658;44.534;18.694;2023-09-18T04:17:40;58.10;;;50.42;;
25824;SDS011;13658;44.534;18.694;2023-09-18T04:20:06;56.95;;;46.75;;
25824;SDS011;13658;44.534;18.694;2023-09-18T04:22:33;52.60;;;46.05;;
25824;SDS011;13658;44.534;18.694;2023-09-18T04:24:59;52.45;;;46.65;;
25824;SDS011;13658;44.534;18.694;2023-09-18T04:27:25;54.10;;;47.45;;
25824;SDS011;13658;44.534;18.694;2023-09-18T04:29:51;57.95;;;48.92;;
25824;SDS011;13658;44.534;18.694;2023-09-18T04:32:17;62.55;;;50.53;;
25824;SDS011;13658;44.534;18.694;2023-09-18T04:34:44;64.65;;;51.35;;
25824;SDS011;13658;44.534;18.694;2023-09-18T04:37:11;59.60;;;50.83;;
25824;SDS011;13658;44.534;18.694;2023-09-18T04:39:37;63.58;;;52.60;;
25824;SDS011;13658;44.534;18.694;2023-09-18T04:42:03;63.47;;;53.30;;
25824;SDS011;13658;44.534;18.694;2023-09-18T04:44:29;62.30;;;51.80;;
25824;SDS011;13658;44.534;18.694;2023-09-18T04:46:56;59.95;;;52.33;;
25824;SDS011;13658;44.534;18.694;2023-09-18T04:49:24;64.63;;;52.00;;
25824;SDS011;13658;44.534;18.694;2023-09-18T04:51:50;62.42;;;51.78;;
25824;SDS011;13658;44.534;18.694;2023-09-18T04:54:16;55.22;;;47.80;;
25824;SDS011;13658;44.534;18.694;2023-09-18T04:56:42;57.55;;;48.78;;
25824;SDS011;13658;44.534;18.694;2023-09-18T04:59:08;56.22;;;46.78;;
25824;SDS011;13658;44.534;18.694;2023-09-18T05:01:34;49.45;;;43.67;;
25824;SDS011;13658;44.534;18.694;2023-09-18T05:04:00;52.78;;;45.47;;
25824;SDS011;13658;44.534;18.694;2023-09-18T05:06:26;51.10;;;45.10;;
25824;SDS011;13658;44.534;18.694;2023-09-18T05:08:53;49.55;;;44.08;;
25824;SDS011;13658;44.534;18.694;2023-09-18T05:11:19;55.08;;;44.55;;
25824;SDS011;13658;44.534;18.694;2023-09-18T05:13:45;58.55;;;51.28;;
25824;SDS011;13658;44.534;18.694;2023-09-18T05:16:11;61.55;;;50.97;;
25824;SDS011;13658;44.534;18.694;2023-09-18T05:18:38;59.20;;;48.72;;
25824;SDS011;13658;44.534;18.694;2023-09-18T05:21:06;63.00;;;49.50;;
25824;SDS011;13658;44.534;18.694;2023-09-18T05:23:32;54.55;;;47.10;;
25824;SDS011;13658;44.534;18.694;2023-09-18T05:25:59;54.30;;;46.63;;
25824;SDS011;13658;44.534;18.694;2023-09-18T05:28:25;48.55;;;40.33;;
25824;SDS011;13658;44.534;18.694;2023-09-18T05:30:51;46.67;;;41.67;;
25824;SDS011;13658;44.534;18.694;2023-09-18T05:33:18;46.58;;;41.45;;
25824;SDS011;13658;44.534;18.694;2023-09-18T05:35:45;44.63;;;38.90;;
25824;SDS011;13658;44.534;18.694;2023-09-18T05:38:11;41.67;;;37.20;;
25824;SDS011;13658;44.534;18.694;2023-09-18T05:40:43;40.67;;;36.25;;
25824;SDS011;13658;44.534;18.694;2023-09-18T05:43:10;39.13;;;35.08;;
25824;SDS011;13658;44.534;18.694;2023-09-18T05:45:37;37.85;;;33.85;;
25824;SDS011;13658;44.534;18.694;2023-09-18T05:48:03;36.33;;;32.42;;
25824;SDS011;13658;44.534;18.694;2023-09-18T05:50:30;35.97;;;32.08;;
25824;SDS011;13658;44.534;18.694;2023-09-18T05:52:57;36.42;;;32.58;;
25824;SDS011;13658;44.534;18.694;2023-09-18T05:55:35;33.45;;;29.95;;
25824;SDS011;13658;44.534;18.694;2023-09-18T05:58:01;32.78;;;28.50;;
25824;SDS011;13658;44.534;18.694;2023-09-18T06:00:29;31.48;;;28.27;;
25824;SDS011;13658;44.534;18.694;2023-09-18T06:02:58;31.77;;;28.25;;
25824;SDS011;13658;44.534;18.694;2023-09-18T06:05:24;31.48;;;28.33;;
25824;SDS011;13658;44.534;18.694;2023-09-18T06:07:51;31.40;;;28.15;;
25824;SDS011;13658;44.534;18.694;2023-09-18T06:10:17;32.75;;;29.17;;
25824;SDS011;13658;44.534;18.694;2023-09-18T06:12:44;33.58;;;30.08;;
25824;SDS011;13658;44.534;18.694;2023-09-18T06:15:10;36.22;;;32.55;;
25824;SDS011;13658;44.534;18.694;2023-09-18T06:17:40;33.30;;;29.77;;
25824;SDS011;13658;44.534;18.694;2023-09-18T06:20:08;36.38;;;32.47;;
25824;SDS011;13658;44.534;18.694;2023-09-18T06:22:39;34.85;;;31.17;;
25824;SDS011;13658;44.534;18.694;2023-09-18T06:25:06;33.38;;;29.85;;
25824;SDS011;13658;44.534;18.694;2023-09-18T06:27:35;35.75;;;31.90;;
25824;SDS011;13658;44.534;18.694;2023-09-18T06:30:02;34.22;;;29.63;;
25824;SDS011;13658;44.534;18.694;2023-09-18T06:32:29;34.58;;;28.63;;
25824;SDS011;13658;44.534;18.694;2023-09-18T06:34:55;34.58;;;29.63;;
25824;SDS011;13658;44.534;18.694;2023-09-18T06:37:23;30.98;;;27.65;;
25824;SDS011;13658;44.534;18.694;2023-09-18T06:39:49;38.47;;;34.65;;
25824;SDS011;13658;44.534;18.694;2023-09-18T06:42:15;31.65;;;28.50;;
25824;SDS011;13658;44.534;18.694;2023-09-18T06:44:41;32.08;;;28.58;;
25824;SDS011;13658;44.534;18.694;2023-09-18T06:47:07;31.75;;;27.92;;
25824;SDS011;13658;44.534;18.694;2023-09-18T06:49:33;32.67;;;29.05;;
25824;SDS011;13658;44.534;18.694;2023-09-18T06:51:59;32.85;;;29.20;;
25824;SDS011;13658;44.534;18.694;2023-09-18T06:54:25;34.58;;;31.08;;
25824;SDS011;13658;44.534;18.694;2023-09-18T06:56:51;41.63;;;36.03;;
25824;SDS011;13658;44.534;18.694;2023-09-18T06:59:17;32.60;;;29.20;;
25824;SDS011;13658;44.534;18.694;2023-09-18T07:01:43;34.97;;;31.20;;
25824;SDS011;13658;44.534;18.694;2023-09-18T07:04:09;39.22;;;35.30;;
25824;SDS011;13658;44.534;18.694;2023-09-18T07:06:35;29.75;;;26.75;;
25824;SDS011;13658;44.534;18.694;2023-09-18T07:09:01;27.13;;;24.48;;
25824;SDS011;13658;44.534;18.694;2023-09-18T07:11:29;26.85;;;24.13;;
25824;SDS011;13658;44.534;18.694;2023-09-18T07:13:55;25.88;;;23.42;;
25824;SDS011;13658;44.534;18.694;2023-09-18T07:16:21;41.03;;;36.97;;
25824;SDS011;13658;44.534;18.694;2023-09-18T07:18:47;37.65;;;33.53;;
25824;SDS011;13658;44.534;18.694;2023-09-18T07:21:13;32.78;;;29.35;;
25824;SDS011;13658;44.534;18.694;2023-09-18T07:23:39;32.70;;;29.42;;
25824;SDS011;13658;44.534;18.694;2023-09-18T07:26:06;33.88;;;30.48;;
25824;SDS011;13658;44.534;18.694;2023-09-18T07:28:32;29.90;;;27.00;;
25824;SDS011;13658;44.534;18.694;2023-09-18T07:31:04;28.52;;;25.55;;
25824;SDS011;13658;44.534;18.694;2023-09-18T07:33:30;26.00;;;23.48;;
25824;SDS011;13658;44.534;18.694;2023-09-18T07:35:56;24.13;;;21.83;;
25824;SDS011;13658;44.534;18.694;2023-09-18T07:38:22;21.77;;;19.67;;
25824;SDS011;13658;44.534;18.694;2023-09-18T07:40:50;18.42;;;16.63;;
25824;SDS011;13658;44.534;18.694;2023-09-18T07:43:16;23.55;;;21.23;;
25824;SDS011;13658;44.534;18.694;2023-09-18T07:45:41;27.20;;;24.58;;
25824;SDS011;13658;44.534;18.694;2023-09-18T07:48:08;17.17;;;15.57;;
25824;SDS011;13658;44.534;18.694;2023-09-18T07:50:34;22.30;;;19.80;;
25824;SDS011;13658;44.534;18.694;2023-09-18T07:53:01;22.67;;;20.27;;
25824;SDS011;13658;44.534;18.694;2023-09-18T07:55:27;21.83;;;19.73;;
25824;SDS011;13658;44.534;18.694;2023-09-18T07:57:55;20.85;;;19.02;;
25824;SDS011;13658;44.534;18.694;2023-09-18T08:00:21;21.38;;;19.17;;
25824;SDS011;13658;44.534;18.694;2023-09-18T08:02:48;24.73;;;22.52;;
25824;SDS011;13658;44.534;18.694;2023-09-18T08:05:15;23.73;;;21.52;;
25824;SDS011;13658;44.534;18.694;2023-09-18T08:07:41;26.48;;;24.13;;
25824;SDS011;13658;44.534;18.694;2023-09-18T08:10:08;20.85;;;18.92;;
25824;SDS011;13658;44.534;18.694;2023-09-18T08:12:34;19.08;;;17.10;;
25824;SDS011;13658;44.534;18.694;2023-09-18T08:15:01;19.27;;;17.55;;
25824;SDS011;13658;44.534;18.694;2023-09-18T08:17:28;16.38;;;14.98;;
25824;SDS011;13658;44.534;18.694;2023-09-18T08:19:54;17.55;;;16.05;;
25824;SDS011;13658;44.534;18.694;2023-09-18T08:22:20;17.80;;;16.20;;
25824;SDS011;13658;44.534;18.694;2023-09-18T08:24:47;18.27;;;16.52;;
25824;SDS011;13658;44.534;18.694;2023-09-18T08:27:14;18.80;;;17.10;;
25824;SDS011;13658;44.534;18.694;2023-09-18T08:29:43;18.55;;;16.77;;
25824;SDS011;13658;44.534;18.694;2023-09-18T08:32:10;19.23;;;17.40;;
25824;SDS011;13658;44.534;18.694;2023-09-18T08:34:36;18.15;;;16.55;;
25824;SDS011;13658;44.534;18.694;2023-09-18T08:37:02;19.98;;;17.98;;
25824;SDS011;13658;44.534;18.694;2023-09-18T08:39:28;17.95;;;16.25;;
25824;SDS011;13658;44.534;18.694;2023-09-18T08:41:58;19.08;;;17.27;;
25824;SDS011;13658;44.534;18.694;2023-09-18T08:44:29;17.65;;;15.90;;
25824;SDS011;13658;44.534;18.694;2023-09-18T08:46:55;21.83;;;19.83;;
25824;SDS011;13658;44.534;18.694;2023-09-18T08:49:23;24.35;;;21.85;;
25824;SDS011;13658;44.534;18.694;2023-09-18T08:51:54;24.35;;;22.15;;
25824;SDS011;13658;44.534;18.694;2023-09-18T08:54:23;24.70;;;22.02;;
25824;SDS011;13658;44.534;18.694;2023-09-18T08:56:53;20.60;;;18.70;;
25824;SDS011;13658;44.534;18.694;2023-09-18T08:59:20;20.65;;;18.65;;
25824;SDS011;13658;44.534;18.694;2023-09-18T09:01:47;19.77;;;17.73;;
25824;SDS011;13658;44.534;18.694;2023-09-18T09:04:13;20.35;;;18.20;;
25824;SDS011;13658;44.534;18.694;2023-09-18T09:06:40;22.42;;;20.02;;
25824;SDS011;13658;44.534;18.694;2023-09-18T09:09:06;19.63;;;17.63;;
25824;SDS011;13658;44.534;18.694;2023-09-18T09:11:33;21.77;;;19.33;;
25824;SDS011;13658;44.534;18.694;2023-09-18T09:14:09;21.65;;;19.10;;
25824;SDS011;13658;44.534;18.694;2023-09-18T09:16:38;16.88;;;15.27;;
25824;SDS011;13658;44.534;18.694;2023-09-18T09:19:05;17.05;;;15.60;;
25824;SDS011;13658;44.534;18.694;2023-09-18T09:21:41;17.85;;;16.13;;
25824;SDS011;13658;44.534;18.694;2023-09-18T09:24:09;24.38;;;22.08;;
25824;SDS011;13658;44.534;18.694;2023-09-18T09:26:42;15.02;;;13.45;;
25824;SDS011;13658;44.534;18.694;2023-09-18T09:29:14;14.80;;;13.43;;
25824;SDS011;13658;44.534;18.694;2023-09-18T09:31:43;12.52;;;11.32;;
25824;SDS011;13658;44.534;18.694;2023-09-18T09:34:10;13.55;;;12.25;;
25824;SDS011;13658;44.534;18.694;2023-09-18T09:36:36;12.10;;;11.00;;
25824;SDS011;13658;44.534;18.694;2023-09-18T09:39:16;13.88;;;12.30;;
25824;SDS011;13658;44.534;18.694;2023-09-18T09:41:45;12.57;;;11.32;;
25824;SDS011;13658;44.534;18.694;2023-09-18T09:44:11;11.98;;;10.77;;
25824;SDS011;13658;44.534;18.694;2023-09-18T09:46:48;12.30;;;11.10;;
25824;SDS011;13658;44.534;18.694;2023-09-18T09:49:16;11.75;;;10.73;;
25824;SDS011;13658;44.534;18.694;2023-09-18T09:51:45;10.88;;;9.88;;
25824;SDS011;13658;44.534;18.694;2023-09-18T09:54:11;12.73;;;10.70;;
25824;SDS011;13658;44.534;18.694;2023-09-18T09:56:48;12.60;;;10.63;;
25824;SDS011;13658;44.534;18.694;2023-09-18T09:59:19;9.50;;;8.50;;
25824;SDS011;13658;44.534;18.694;2023-09-18T10:01:46;11.15;;;9.80;;
25824;SDS011;13658;44.534;18.694;2023-09-18T10:04:14;12.68;;;10.68;;
25824;SDS011;13658;44.534;18.694;2023-09-18T10:06:43;11.57;;;10.40;;
25824;SDS011;13658;44.534;18.694;2023-09-18T10:09:12;8.77;;;7.88;;
25824;SDS011;13658;44.534;18.694;2023-09-18T10:11:43;8.55;;;7.50;;
25824;SDS011;13658;44.534;18.694;2023-09-18T10:14:16;12.73;;;8.73;;
25824;SDS011;13658;44.534;18.694;2023-09-18T10:16:49;9.82;;;7.13;;
25824;SDS011;13658;44.534;18.694;2023-09-18T10:22:09;10.88;;;7.90;;
25824;SDS011;13658;44.534;18.694;2023-09-18T10:24:41;8.73;;;7.85;;
25824;SDS011;13658;44.534;18.694;2023-09-18T10:27:12;10.00;;;7.70;;
25824;SDS011;13658;44.534;18.694;2023-09-18T10:29:40;8.63;;;7.57;;
25824;SDS011;13658;44.534;18.694;2023-09-18T10:32:07;9.35;;;8.10;;
25824;SDS011;13658;44.534;18.694;2023-09-18T10:34:33;10.88;;;9.20;;
25824;SDS011;13658;44.534;18.694;2023-09-18T10:37:00;12.95;;;9.65;;
25824;SDS011;13658;44.534;18.694;2023-09-18T10:39:31;9.32;;;8.30;;
25824;SDS011;13658;44.534;18.694;2023-09-18T10:42:02;10.70;;;9.45;;
25824;SDS011;13658;44.534;18.694;2023-09-18T10:44:29;11.32;;;10.23;;
25824;SDS011;13658;44.534;18.694;2023-09-18T10:46:58;13.68;;;12.23;;
25824;SDS011;13658;44.534;18.694;2023-09-18T10:49:25;15.65;;;12.50;;
25824;SDS011;13658;44.534;18.694;2023-09-18T10:51:55;11.00;;;9.23;;
25824;SDS011;13658;44.534;18.694;2023-09-18T10:54:22;13.13;;;9.05;;
25824;SDS011;13658;44.534;18.694;2023-09-18T10:56:49;13.95;;;9.02;;
25824;SDS011;13658;44.534;18.694;2023-09-18T10:59:16;15.15;;;10.63;;
25824;SDS011;13658;44.534;18.694;2023-09-18T11:01:43;14.95;;;11.65;;
25824;SDS011;13658;44.534;18.694;2023-09-18T11:04:10;9.73;;;8.20;;
25824;SDS011;13658;44.534;18.694;2023-09-18T11:09:24;15.07;;;11.32;;
25824;SDS011;13658;44.534;18.694;2023-09-18T11:11:56;10.55;;;7.72;;
25824;SDS011;13658;44.534;18.694;2023-09-18T11:22:48;11.55;;;8.55;;
25824;SDS011;13658;44.534;18.694;2023-09-18T11:28:04;11.43;;;7.57;;
25824;SDS011;13658;44.534;18.694;2023-09-18T11:30:34;11.50;;;8.07;;
25824;SDS011;13658;44.534;18.694;2023-09-18T11:33:02;10.52;;;7.82;;
25824;SDS011;13658;44.534;18.694;2023-09-18T11:35:35;10.07;;;7.80;;
25824;SDS011;13658;44.534;18.694;2023-09-18T11:38:08;15.32;;;9.77;;
25824;SDS011;13658;44.534;18.694;2023-09-18T11:40:36;15.63;;;12.00;;
25824;SDS011;13658;44.534;18.694;2023-09-18T11:45:55;9.88;;;8.10;;
25824;SDS011;13658;44.534;18.694;2023-09-18T11:48:23;11.90;;;10.07;;
25824;SDS011;13658;44.534;18.694;2023-09-18T11:50:53;16.05;;;9.82;;
25824;SDS011;13658;44.534;18.694;2023-09-18T11:53:20;13.57;;;10.65;;
25824;SDS011;13658;44.534;18.694;2023-09-18T11:55:46;12.98;;;9.43;;
25824;SDS011;13658;44.534;18.694;2023-09-18T11:58:13;12.35;;;8.50;;
25824;SDS011;13658;44.534;18.694;2023-09-18T12:00:40;13.80;;;9.52;;
25824;SDS011;13658;44.534;18.694;2023-09-18T12:03:19;12.70;;;9.63;;
25824;SDS011;13658;44.534;18.694;2023-09-18T12:06:00;13.10;;;10.32;;
25824;SDS011;13658;44.534;18.694;2023-09-18T12:08:32;12.65;;;9.02;;
25824;SDS011;13658;44.534;18.694;2023-09-18T12:10:58;16.40;;;13.48;;
25824;SDS011;13658;44.534;18.694;2023-09-18T12:13:24;18.27;;;12.95;;
25824;SDS011;13658;44.534;18.694;2023-09-18T12:18:30;17.75;;;12.68;;
25824;SDS011;13658;44.534;18.694;2023-09-18T12:21:05;15.67;;;8.60;;
25824;SDS011;13658;44.534;18.694;2023-09-18T12:23:39;10.40;;;7.18;;
25824;SDS011;13658;44.534;18.694;2023-09-18T12:26:10;12.20;;;9.50;;
25824;SDS011;13658;44.534;18.694;2023-09-18T12:28:41;12.43;;;8.68;;
25824;SDS011;13658;44.534;18.694;2023-09-18T12:31:11;12.55;;;9.15;;
25824;SDS011;13658;44.534;18.694;2023-09-18T12:33:41;12.73;;;9.55;;
25824;SDS011;13658;44.534;18.694;2023-09-18T12:36:12;17.80;;;10.45;;
25824;SDS011;13658;44.534;18.694;2023-09-18T12:38:45;16.95;;;11.93;;
25824;SDS011;13658;44.534;18.694;2023-09-18T12:41:23;14.70;;;9.45;;
25824;SDS011;13658;44.534;18.694;2023-09-18T12:43:53;10.50;;;9.20;;
25824;SDS011;13658;44.534;18.694;2023-09-18T12:46:19;12.98;;;8.88;;
25824;SDS011;13658;44.534;18.694;2023-09-18T12:48:47;13.48;;;9.57;;
25824;SDS011;13658;44.534;18.694;2023-09-18T12:51:13;13.65;;;9.40;;
25824;SDS011;13658;44.534;18.694;2023-09-18T12:53:41;11.80;;;9.73;;
25824;SDS011;13658;44.534;18.694;2023-09-18T12:56:11;12.60;;;9.57;;
25824;SDS011;13658;44.534;18.694;2023-09-18T12:58:38;13.70;;;10.00;;
25824;SDS011;13658;44.534;18.694;2023-09-18T13:01:05;14.52;;;10.30;;
25824;SDS011;13658;44.534;18.694;2023-09-18T13:03:43;18.98;;;12.23;;
25824;SDS011;13658;44.534;18.694;2023-09-18T13:06:12;14.32;;;10.82;;
25824;SDS011;13658;44.534;18.694;2023-09-18T13:08:45;15.00;;;10.07;;
25824;SDS011;13658;44.534;18.694;2023-09-18T13:11:11;16.98;;;10.45;;
25824;SDS011;13658;44.534;18.694;2023-09-18T13:13:39;16.52;;;10.60;;
25824;SDS011;13658;44.534;18.694;2023-09-18T13:16:06;14.85;;;9.73;;
25824;SDS011;13658;44.534;18.694;2023-09-18T13:18:37;13.85;;;10.13;;
25824;SDS011;13658;44.534;18.694;2023-09-18T13:21:08;19.23;;;10.68;;
25824;SDS011;13658;44.534;18.694;2023-09-18T13:23:36;16.17;;;10.63;;
25824;SDS011;13658;44.534;18.694;2023-09-18T13:26:03;20.88;;;11.38;;
25824;SDS011;13658;44.534;18.694;2023-09-18T13:28:30;17.58;;;10.93;;
25824;SDS011;13658;44.534;18.694;2023-09-18T13:30:58;20.20;;;11.43;;
25824;SDS011;13658;44.534;18.694;2023-09-18T13:33:25;18.42;;;10.82;;
25824;SDS011;13658;44.534;18.694;2023-09-18T13:35:51;18.33;;;11.82;;
25824;SDS011;13658;44.534;18.694;2023-09-18T13:38:18;16.17;;;10.40;;
25824;SDS011;13658;44.534;18.694;2023-09-18T13:40:45;14.23;;;9.85;;
25824;SDS011;13658;44.534;18.694;2023-09-18T13:43:12;15.55;;;9.88;;
25824;SDS011;13658;44.534;18.694;2023-09-18T13:45:47;12.85;;;9.85;;
25824;SDS011;13658;44.534;18.694;2023-09-18T13:48:17;13.80;;;9.93;;
25824;SDS011;13658;44.534;18.694;2023-09-18T13:50:43;41.50;;;26.20;;
25824;SDS011;13658;44.534;18.694;2023-09-18T13:53:10;13.55;;;10.13;;
25824;SDS011;13658;44.534;18.694;2023-09-18T13:55:36;15.27;;;10.38;;
25824;SDS011;13658;44.534;18.694;2023-09-18T13:58:02;11.45;;;8.93;;
25824;SDS011;13658;44.534;18.694;2023-09-18T14:00:28;15.68;;;9.27;;
25824;SDS011;13658;44.534;18.694;2023-09-18T14:02:54;12.65;;;9.35;;
25824;SDS011;13658;44.534;18.694;2023-09-18T14:05:20;14.68;;;9.13;;
25824;SDS011;13658;44.534;18.694;2023-09-18T14:07:46;18.10;;;9.15;;
25824;SDS011;13658;44.534;18.694;2023-09-18T14:10:13;13.13;;;9.85;;
25824;SDS011;13658;44.534;18.694;2023-09-18T14:12:41;15.25;;;8.65;;
25824;SDS011;13658;44.534;18.694;2023-09-18T14:15:08;13.75;;;8.60;;
25824;SDS011;13658;44.534;18.694;2023-09-18T14:17:35;15.45;;;9.20;;
25824;SDS011;13658;44.534;18.694;2023-09-18T14:20:05;16.55;;;9.30;;
25824;SDS011;13658;44.534;18.694;2023-09-18T14:22:32;13.23;;;9.20;;
25824;SDS011;13658;44.534;18.694;2023-09-18T14:25:01;16.42;;;10.73;;
25824;SDS011;13658;44.534;18.694;2023-09-18T14:27:31;17.15;;;10.13;;
25824;SDS011;13658;44.534;18.694;2023-09-18T14:29:57;15.75;;;10.93;;
25824;SDS011;13658;44.534;18.694;2023-09-18T14:32:23;16.23;;;10.57;;
25824;SDS011;13658;44.534;18.694;2023-09-18T14:34:49;17.17;;;10.80;;
25824;SDS011;13658;44.534;18.694;2023-09-18T14:37:15;18.80;;;11.18;;
25824;SDS011;13658;44.534;18.694;2023-09-18T14:39:41;16.95;;;11.68;;